Time,TemperatureF,DewpointF,PressureIn,WindDirection,WindDirectionDegrees,WindSpeedMPH,WindSpeedGustMPH,Humidity,HourlyPrecipIn,Conditions,Clouds,dailyrainin,SoftwareType,DateUTC
2013-03-26 00:01:00,31.7,25.0,30.10,North,349,1.0,1.0,76,0.00,,,0.00,Wunderground v.1.15,2013-03-26 05:01:00,
2013-03-26 00:06:00,31.7,25.0,30.09,SSE,155,0.0,1.0,76,0.00,,,0.00,Wunderground v.1.15,2013-03-26 05:06:00,
2013-03-26 00:13:00,31.7,25.0,30.10,NW,321,0.0,1.0,76,0.00,,,0.00,Wunderground v.1.15,2013-03-26 05:13:00,
2013-03-26 00:18:00,31.7,25.0,30.10,North,9,1.0,1.0,76,0.00,,,0.00,Wunderground v.1.15,2013-03-26 05:18:00,
2013-03-26 00:24:00,31.6,25.0,30.10,WSW,245,0.0,2.0,76,0.00,,,0.00,weatherlink.com 1.10,2013-03-26 05:24:00,
2013-03-26 00:29:00,31.6,24.9,30.10,NW,325,1.0,1.0,76,0.00,,,0.00,Wunderground v.1.15,2013-03-26 05:29:00,
2013-03-26 00:35:00,31.6,24.9,30.11,SW,236,0.0,1.0,76,0.00,,,0.00,Wunderground v.1.15,2013-03-26 05:35:00,
2013-03-26 00:40:00,31.4,24.7,30.11,WSW,250,0.0,0.0,76,0.00,,,0.00,Wunderground v.1.15,2013-03-26 05:40:00,
2013-03-26 00:45:00,31.5,25.1,30.11,WSW,242,0.0,0.0,77,0.00,,,0.00,Wunderground v.1.15,2013-03-26 05:45:00,
2013-03-26 00:52:00,31.6,25.2,30.11,NW,317,1.0,2.0,77,0.00,,,0.00,Wunderground v.1.15,2013-03-26 05:52:00,
2013-03-26 00:57:00,31.6,24.9,30.11,North,358,0.0,3.0,76,0.00,,,0.00,Wunderground v.1.15,2013-03-26 05:57:00,
2013-03-26 01:03:00,31.7,25.0,30.11,West,276,2.0,2.0,76,0.00,,,0.00,Wunderground v.1.15,2013-03-26 06:03:00,
2013-03-26 01:09:00,31.6,25.0,30.11,WNW,284,0.0,2.0,76,0.00,,,0.00,weatherlink.com 1.10,2013-03-26 06:09:00,
2013-03-26 01:14:00,31.6,24.9,30.11,NNW,330,1.0,1.0,76,0.00,,,0.00,Wunderground v.1.15,2013-03-26 06:14:00,
2013-03-26 01:20:00,31.6,25.2,30.11,North,1,1.0,1.0,77,0.00,,,0.00,Wunderground v.1.15,2013-03-26 06:20:00,
2013-03-26 01:26:00,31.6,25.2,30.11,WNW,289,0.0,1.0,77,0.00,,,0.00,Wunderground v.1.15,2013-03-26 06:26:00,
2013-03-26 01:31:00,31.5,25.1,30.11,West,277,0.0,1.0,77,0.00,,,0.00,Wunderground v.1.15,2013-03-26 06:31:00,
2013-03-26 01:37:00,31.4,25.0,30.11,West,273,0.0,1.0,77,0.00,,,0.00,Wunderground v.1.15,2013-03-26 06:37:00,
2013-03-26 01:42:00,31.3,24.9,30.11,West,280,0.0,0.0,77,0.00,,,0.00,Wunderground v.1.15,2013-03-26 06:42:00,
2013-03-26 01:47:00,31.3,24.9,30.11,West,278,0.0,0.0,77,0.00,,,0.00,Wunderground v.1.15,2013-03-26 06:47:00,
2013-03-26 01:52:00,31.2,25.1,30.11,NW,321,0.0,1.0,78,0.00,,,0.00,Wunderground v.1.15,2013-03-26 06:52:00,
2013-03-26 01:57:00,31.2,25.1,30.11,NNW,340,0.0,1.0,78,0.00,,,0.00,Wunderground v.1.15,2013-03-26 06:57:00,
2013-03-26 02:02:00,31.1,25.0,30.11,West,262,0.0,1.0,78,0.00,,,0.00,Wunderground v.1.15,2013-03-26 07:02:00,
2013-03-26 02:07:00,31.2,25.1,30.11,WSW,256,0.0,1.0,78,0.00,,,0.00,Wunderground v.1.15,2013-03-26 07:07:00,
2013-03-26 02:12:00,31.1,25.0,30.11,WSW,256,0.0,0.0,78,0.00,,,0.00,Wunderground v.1.15,2013-03-26 07:12:00,
2013-03-26 02:17:00,31.0,25.2,30.11,NNW,335,0.0,0.0,79,0.00,,,0.00,Wunderground v.1.15,2013-03-26 07:17:00,
2013-03-26 02:22:00,30.9,25.2,30.11,WNW,287,0.0,0.0,79,0.00,,,0.00,Wunderground v.1.15,2013-03-26 07:22:00,
2013-03-26 02:27:00,30.8,25.1,30.11,WNW,287,0.0,0.0,79,0.00,,,0.00,Wunderground v.1.15,2013-03-26 07:27:00,
2013-03-26 02:32:00,30.6,24.9,30.11,SW,233,0.0,0.0,79,0.00,,,0.00,Wunderground v.1.15,2013-03-26 07:32:00,
2013-03-26 02:37:00,30.6,24.9,30.11,NW,321,0.0,1.0,79,0.00,,,0.00,Wunderground v.1.15,2013-03-26 07:37:00,
2013-03-26 02:42:00,30.6,24.9,30.11,WSW,242,0.0,3.0,79,0.00,,,0.00,Wunderground v.1.15,2013-03-26 07:42:00,
2013-03-26 02:47:00,30.6,24.9,30.11,WNW,283,0.0,3.0,79,0.00,,,0.00,Wunderground v.1.15,2013-03-26 07:47:00,
2013-03-26 02:52:00,30.5,24.8,30.11,West,267,0.0,2.0,79,0.00,,,0.00,Wunderground v.1.15,2013-03-26 07:52:00,
2013-03-26 02:57:00,30.4,25.0,30.11,North,352,2.0,2.0,80,0.00,,,0.00,Wunderground v.1.15,2013-03-26 07:57:00,
2013-03-26 03:02:00,30.4,25.0,30.11,West,276,0.0,3.0,80,0.00,,,0.00,Wunderground v.1.15,2013-03-26 08:02:00,
2013-03-26 03:07:00,30.3,24.9,30.11,WNW,293,1.0,3.0,80,0.00,,,0.00,Wunderground v.1.15,2013-03-26 08:07:00,
2013-03-26 03:12:00,30.2,24.8,30.11,WSW,257,3.0,4.0,80,0.00,,,0.00,Wunderground v.1.15,2013-03-26 08:12:00,
2013-03-26 03:17:00,30.2,24.8,30.11,West,281,1.0,4.0,80,0.00,,,0.00,Wunderground v.1.15,2013-03-26 08:17:00,
2013-03-26 03:22:00,30.1,24.7,30.11,West,274,0.0,5.0,80,0.00,,,0.00,Wunderground v.1.15,2013-03-26 08:22:00,
2013-03-26 03:28:00,30.0,24.6,30.11,West,280,1.0,5.0,80,0.00,,,0.00,Wunderground v.1.15,2013-03-26 08:28:00,
2013-03-26 03:33:00,29.8,24.4,30.11,WNW,285,0.0,3.0,80,0.00,,,0.00,Wunderground v.1.15,2013-03-26 08:33:00,
2013-03-26 03:38:00,29.5,24.1,30.11,WSW,255,0.0,3.0,80,0.00,,,0.00,Wunderground v.1.15,2013-03-26 08:38:00,
2013-03-26 03:43:00,29.5,24.1,30.11,West,274,2.0,4.0,80,0.00,,,0.00,Wunderground v.1.15,2013-03-26 08:43:00,
2013-03-26 03:48:00,29.5,24.1,30.11,West,259,0.0,4.0,80,0.00,,,0.00,Wunderground v.1.15,2013-03-26 08:48:00,
2013-03-26 03:53:00,29.4,24.0,30.11,West,276,0.0,3.0,80,0.00,,,0.00,Wunderground v.1.15,2013-03-26 08:53:00,
2013-03-26 03:58:00,29.2,23.8,30.11,NW,307,0.0,3.0,80,0.00,,,0.00,Wunderground v.1.15,2013-03-26 08:58:00,
2013-03-26 04:03:00,29.0,23.6,30.11,West,280,1.0,5.0,80,0.00,,,0.00,Wunderground v.1.15,2013-03-26 09:03:00,
2013-03-26 04:08:00,29.0,23.3,30.11,West,274,1.0,5.0,79,0.00,,,0.00,Wunderground v.1.15,2013-03-26 09:08:00,
2013-03-26 04:13:00,29.0,23.3,30.11,West,270,1.0,4.0,79,0.00,,,0.00,Wunderground v.1.15,2013-03-26 09:13:00,
2013-03-26 04:18:00,28.9,23.2,30.12,WNW,286,1.0,2.0,79,0.00,,,0.00,Wunderground v.1.15,2013-03-26 09:18:00,
2013-03-26 04:23:00,28.9,23.5,30.12,NW,308,0.0,3.0,80,0.00,,,0.00,Wunderground v.1.15,2013-03-26 09:23:00,
2013-03-26 04:28:00,28.9,23.2,30.12,NNW,334,0.0,1.0,79,0.00,,,0.00,Wunderground v.1.15,2013-03-26 09:28:00,
2013-03-26 04:33:00,28.9,23.5,30.12,WSW,253,0.0,3.0,80,0.00,,,0.00,Wunderground v.1.15,2013-03-26 09:33:00,
2013-03-26 04:38:00,29.1,23.7,30.12,West,274,2.0,2.0,80,0.00,,,0.00,Wunderground v.1.15,2013-03-26 09:38:00,
2013-03-26 04:43:00,29.3,23.6,30.12,WNW,283,2.0,4.0,79,0.00,,,0.00,Wunderground v.1.15,2013-03-26 09:43:00,
2013-03-26 04:48:00,29.6,23.9,30.12,WSW,240,1.0,2.0,79,0.00,,,0.00,Wunderground v.1.15,2013-03-26 09:48:00,
2013-03-26 04:53:00,29.7,24.0,30.12,West,263,2.0,5.0,79,0.00,,,0.00,Wunderground v.1.15,2013-03-26 09:53:00,
2013-03-26 04:58:00,29.8,24.1,30.13,West,267,0.0,2.0,79,0.00,,,0.00,Wunderground v.1.15,2013-03-26 09:58:00,
2013-03-26 05:03:00,29.8,24.1,30.13,West,274,0.0,3.0,79,0.00,,,0.00,Wunderground v.1.15,2013-03-26 10:03:00,
2013-03-26 05:08:00,29.8,24.1,30.13,WNW,283,6.0,6.0,79,0.00,,,0.00,Wunderground v.1.15,2013-03-26 10:08:00,
2013-03-26 05:13:00,29.8,24.1,30.13,NE,53,1.0,6.0,79,0.00,,,0.00,Wunderground v.1.15,2013-03-26 10:13:00,
2013-03-26 05:18:00,29.8,24.1,30.13,West,276,3.0,3.0,79,0.00,,,0.00,Wunderground v.1.15,2013-03-26 10:18:00,
2013-03-26 05:23:00,29.8,24.1,30.13,West,276,1.0,4.0,79,0.00,,,0.00,Wunderground v.1.15,2013-03-26 10:23:00,
2013-03-26 05:28:00,29.8,24.1,30.13,West,269,2.0,3.0,79,0.00,,,0.00,Wunderground v.1.15,2013-03-26 10:28:00,
2013-03-26 05:33:00,29.7,24.3,30.14,WSW,253,1.0,4.0,80,0.00,,,0.00,Wunderground v.1.15,2013-03-26 10:33:00,
2013-03-26 05:38:00,29.7,24.3,30.14,West,274,1.0,2.0,80,0.00,,,0.00,Wunderground v.1.15,2013-03-26 10:38:00,
2013-03-26 05:43:00,29.7,24.3,30.14,NNW,327,1.0,4.0,80,0.00,,,0.00,Wunderground v.1.15,2013-03-26 10:43:00,
2013-03-26 05:48:00,29.7,24.3,30.14,West,269,2.0,2.0,80,0.00,,,0.00,Wunderground v.1.15,2013-03-26 10:48:00,
2013-03-26 05:53:00,29.6,24.2,30.14,WSW,245,5.0,6.0,80,0.00,,,0.00,Wunderground v.1.15,2013-03-26 10:53:00,
2013-03-26 05:58:00,29.6,24.2,30.14,West,277,2.0,5.0,80,0.00,,,0.00,Wunderground v.1.15,2013-03-26 10:58:00,
2013-03-26 06:03:00,29.6,24.2,30.14,West,278,1.0,5.0,80,0.00,,,0.00,Wunderground v.1.15,2013-03-26 11:03:00,
2013-03-26 06:08:00,29.6,24.2,30.14,West,270,3.0,4.0,80,0.00,,,0.00,Wunderground v.1.15,2013-03-26 11:08:00,
2013-03-26 06:13:00,29.6,24.2,30.14,West,276,4.0,6.0,80,0.00,,,0.00,Wunderground v.1.15,2013-03-26 11:13:00,
2013-03-26 06:18:00,29.6,24.2,30.15,WNW,285,5.0,5.0,80,0.00,,,0.00,Wunderground v.1.15,2013-03-26 11:18:00,
2013-03-26 06:23:00,29.6,24.2,30.15,NNW,329,3.0,5.0,80,0.00,,,0.00,Wunderground v.1.15,2013-03-26 11:23:00,
2013-03-26 06:28:00,29.5,24.1,30.15,West,271,6.0,6.0,80,0.00,,,0.00,Wunderground v.1.15,2013-03-26 11:28:00,
2013-03-26 06:33:00,29.4,24.0,30.15,WNW,290,0.0,6.0,80,0.00,,,0.00,Wunderground v.1.15,2013-03-26 11:33:00,
2013-03-26 06:38:00,29.4,23.7,30.15,West,270,3.0,6.0,79,0.00,,,0.00,Wunderground v.1.15,2013-03-26 11:38:00,
2013-03-26 06:43:00,29.4,23.7,30.15,West,271,2.0,8.0,79,0.00,,,0.00,Wunderground v.1.15,2013-03-26 11:43:00,
2013-03-26 06:48:00,29.4,24.0,30.15,NW,317,3.0,4.0,80,0.00,,,0.00,Wunderground v.1.15,2013-03-26 11:48:00,
2013-03-26 06:53:00,29.3,23.9,30.16,NW,318,1.0,5.0,80,0.00,,,0.00,Wunderground v.1.15,2013-03-26 11:53:00,
2013-03-26 06:58:00,29.3,23.9,30.16,West,276,3.0,5.0,80,0.00,,,0.00,Wunderground v.1.15,2013-03-26 11:58:00,
2013-03-26 07:03:00,29.2,23.8,30.16,West,272,3.0,5.0,80,0.00,,,0.00,Wunderground v.1.15,2013-03-26 12:03:00,
2013-03-26 07:08:00,29.2,23.8,30.16,West,271,3.0,3.0,80,0.00,,,0.00,Wunderground v.1.15,2013-03-26 12:08:00,
2013-03-26 07:13:00,29.3,23.9,30.16,WNW,291,3.0,5.0,80,0.00,,,0.00,Wunderground v.1.15,2013-03-26 12:13:00,
2013-03-26 07:18:00,29.3,23.9,30.16,WNW,288,1.0,3.0,80,0.00,,,0.00,Wunderground v.1.15,2013-03-26 12:18:00,
2013-03-26 07:23:00,29.3,23.9,30.16,West,263,3.0,7.0,80,0.00,,,0.00,Wunderground v.1.15,2013-03-26 12:23:00,
2013-03-26 07:28:00,29.3,23.9,30.17,West,281,2.0,4.0,80,0.00,,,0.00,Wunderground v.1.15,2013-03-26 12:28:00,
2013-03-26 07:33:00,29.4,24.0,30.17,West,267,4.0,5.0,80,0.00,,,0.00,Wunderground v.1.15,2013-03-26 12:33:00,
2013-03-26 07:38:00,29.4,24.0,30.17,NNW,328,2.0,6.0,80,0.00,,,0.00,Wunderground v.1.15,2013-03-26 12:38:00,
2013-03-26 07:43:00,29.5,24.1,30.17,WNW,290,3.0,9.0,80,0.00,,,0.00,Wunderground v.1.15,2013-03-26 12:43:00,
2013-03-26 07:48:00,29.5,23.8,30.17,West,267,2.0,4.0,79,0.00,,,0.00,Wunderground v.1.15,2013-03-26 12:48:00,
2013-03-26 07:53:00,29.6,23.9,30.17,West,269,2.0,7.0,79,0.00,,,0.00,Wunderground v.1.15,2013-03-26 12:53:00,
2013-03-26 07:58:00,29.7,24.0,30.17,NNW,340,4.0,8.0,79,0.00,,,0.00,Wunderground v.1.15,2013-03-26 12:58:00,
2013-03-26 08:03:00,29.8,23.8,30.17,NW,308,4.0,8.0,78,0.00,,,0.00,Wunderground v.1.15,2013-03-26 13:03:00,
2013-03-26 08:08:00,29.9,23.9,30.17,West,262,6.0,10.0,78,0.00,,,0.00,Wunderground v.1.15,2013-03-26 13:08:00,
2013-03-26 08:13:00,30.0,24.0,30.17,West,280,1.0,10.0,78,0.00,,,0.00,Wunderground v.1.15,2013-03-26 13:13:00,
2013-03-26 08:18:00,30.1,24.1,30.17,West,277,4.0,7.0,78,0.00,,,0.00,Wunderground v.1.15,2013-03-26 13:18:00,
2013-03-26 08:23:00,30.2,23.9,30.17,NW,309,2.0,11.0,77,0.00,,,0.00,Wunderground v.1.15,2013-03-26 13:23:00,
2013-03-26 08:28:00,30.3,24.0,30.18,WNW,286,3.0,5.0,77,0.00,,,0.00,Wunderground v.1.15,2013-03-26 13:28:00,
2013-03-26 08:33:00,30.3,24.0,30.18,West,266,4.0,9.0,77,0.00,,,0.00,Wunderground v.1.15,2013-03-26 13:33:00,
2013-03-26 08:38:00,30.4,24.1,30.18,West,273,6.0,7.0,77,0.00,,,0.00,Wunderground v.1.15,2013-03-26 13:38:00,
2013-03-26 08:43:00,30.5,24.1,30.18,West,276,4.0,9.0,77,0.00,,,0.00,Wunderground v.1.15,2013-03-26 13:43:00,
2013-03-26 08:48:00,30.6,23.9,30.18,West,272,4.0,7.0,76,0.00,,,0.00,Wunderground v.1.15,2013-03-26 13:48:00,
2013-03-26 08:53:00,30.6,23.9,30.18,WNW,290,3.0,9.0,76,0.00,,,0.00,Wunderground v.1.15,2013-03-26 13:53:00,
2013-03-26 08:58:00,30.8,24.1,30.18,WSW,252,5.0,7.0,76,0.00,,,0.00,Wunderground v.1.15,2013-03-26 13:58:00,
2013-03-26 09:03:00,31.0,24.3,30.18,NW,309,1.0,7.0,76,0.00,,,0.00,Wunderground v.1.15,2013-03-26 14:03:00,
2013-03-26 09:08:00,31.2,24.5,30.18,WSW,255,5.0,8.0,76,0.00,,,0.00,Wunderground v.1.15,2013-03-26 14:08:00,
2013-03-26 09:13:00,31.4,24.7,30.18,West,276,4.0,8.0,76,0.00,,,0.00,Wunderground v.1.15,2013-03-26 14:13:00,
2013-03-26 09:18:00,31.5,24.5,30.18,WSW,257,6.0,7.0,75,0.00,,,0.00,Wunderground v.1.15,2013-03-26 14:18:00,
2013-03-26 09:23:00,31.6,24.6,30.19,WNW,283,4.0,8.0,75,0.00,,,0.00,Wunderground v.1.15,2013-03-26 14:23:00,
2013-03-26 09:28:00,31.8,24.8,30.19,West,270,4.0,7.0,75,0.00,,,0.00,Wunderground v.1.15,2013-03-26 14:28:00,
2013-03-26 09:33:00,32.0,25.0,30.19,West,264,7.0,9.0,75,0.00,,,0.00,Wunderground v.1.15,2013-03-26 14:33:00,
2013-03-26 09:38:00,32.3,25.3,30.19,NW,307,4.0,6.0,75,0.00,,,0.00,Wunderground v.1.15,2013-03-26 14:38:00,
2013-03-26 09:43:00,32.4,25.0,30.19,WNW,299,3.0,8.0,74,0.00,,,0.00,Wunderground v.1.15,2013-03-26 14:43:00,
2013-03-26 09:49:00,32.4,25.0,30.19,West,274,3.0,10.0,74,0.00,,,0.00,Wunderground v.1.15,2013-03-26 14:49:00,
2013-03-26 09:54:00,32.4,25.0,30.19,WSW,250,4.0,10.0,74,0.00,,,0.00,Wunderground v.1.15,2013-03-26 14:54:00,
2013-03-26 09:59:00,32.7,25.3,30.20,West,278,3.0,10.0,74,0.00,,,0.00,Wunderground v.1.15,2013-03-26 14:59:00,
2013-03-26 10:04:00,32.8,25.4,30.19,NW,313,3.0,10.0,74,0.00,,,0.00,Wunderground v.1.15,2013-03-26 15:04:00,
2013-03-26 10:09:00,33.0,25.3,30.19,WNW,284,6.0,6.0,73,0.00,,,0.00,Wunderground v.1.15,2013-03-26 15:09:00,
2013-03-26 10:14:00,33.4,25.7,30.19,WNW,284,6.0,6.0,73,0.00,,,0.00,Wunderground v.1.15,2013-03-26 15:14:00,
2013-03-26 10:19:00,33.5,25.8,30.20,WSW,249,10.0,12.0,73,0.00,,,0.00,Wunderground v.1.15,2013-03-26 15:19:00,
2013-03-26 10:24:00,33.6,25.9,30.19,West,266,8.0,12.0,73,0.00,,,0.00,Wunderground v.1.15,2013-03-26 15:24:00,
2013-03-26 10:29:00,33.6,25.9,30.19,West,259,7.0,10.0,73,0.00,,,0.00,Wunderground v.1.15,2013-03-26 15:29:00,
2013-03-26 10:34:00,33.5,25.4,30.20,West,259,5.0,10.0,72,0.00,,,0.00,Wunderground v.1.15,2013-03-26 15:34:00,
2013-03-26 10:39:00,33.5,25.8,30.19,West,265,3.0,7.0,73,0.00,,,0.00,Wunderground v.1.15,2013-03-26 15:39:00,
2013-03-26 10:44:00,33.7,25.6,30.20,West,269,6.0,9.0,72,0.00,,,0.00,Wunderground v.1.15,2013-03-26 15:44:00,
2013-03-26 10:49:00,33.9,25.8,30.20,WNW,287,4.0,6.0,72,0.00,,,0.00,Wunderground v.1.15,2013-03-26 15:49:00,
2013-03-26 10:54:00,34.2,26.1,30.20,West,264,2.0,11.0,72,0.00,,,0.00,Wunderground v.1.15,2013-03-26 15:54:00,
2013-03-26 10:59:00,34.6,26.5,30.20,West,269,7.0,8.0,72,0.00,,,0.00,Wunderground v.1.15,2013-03-26 15:59:00,
2013-03-26 11:04:00,34.6,26.2,30.20,WNW,290,2.0,9.0,71,0.00,,,0.00,Wunderground v.1.15,2013-03-26 16:04:00,
2013-03-26 11:09:00,34.6,26.2,30.20,WNW,301,6.0,10.0,71,0.00,,,0.00,Wunderground v.1.15,2013-03-26 16:09:00,
2013-03-26 11:14:00,34.7,26.6,30.20,West,278,5.0,10.0,72,0.00,,,0.00,Wunderground v.1.15,2013-03-26 16:14:00,
2013-03-26 11:19:00,34.9,26.4,30.20,NW,321,4.0,6.0,71,0.00,,,0.00,Wunderground v.1.15,2013-03-26 16:19:00,
2013-03-26 11:24:00,35.1,26.6,30.20,WSW,252,4.0,9.0,71,0.00,,,0.00,Wunderground v.1.15,2013-03-26 16:24:00,
2013-03-26 11:29:00,35.6,27.1,30.20,North,352,2.0,4.0,71,0.00,,,0.00,Wunderground v.1.15,2013-03-26 16:29:00,
2013-03-26 11:34:00,35.4,26.6,30.20,West,274,6.0,11.0,70,0.00,,,0.00,Wunderground v.1.15,2013-03-26 16:34:00,
2013-03-26 11:39:00,35.1,26.3,30.20,West,270,6.0,11.0,70,0.00,,,0.00,Wunderground v.1.15,2013-03-26 16:39:00,
2013-03-26 11:44:00,35.7,27.2,30.20,West,267,7.0,11.0,71,0.00,,,0.00,Wunderground v.1.15,2013-03-26 16:44:00,
2013-03-26 11:49:00,36.0,27.2,30.20,WNW,290,2.0,7.0,70,0.00,,,0.00,Wunderground v.1.15,2013-03-26 16:49:00,
2013-03-26 11:54:00,36.2,27.4,30.20,West,267,4.0,10.0,70,0.00,,,0.00,Wunderground v.1.15,2013-03-26 16:54:00,
2013-03-26 11:59:00,36.3,27.1,30.20,West,274,5.0,5.0,69,0.00,,,0.00,Wunderground v.1.15,2013-03-26 16:59:00,
2013-03-26 12:04:00,36.5,27.3,30.20,WNW,298,4.0,8.0,69,0.00,,,0.00,Wunderground v.1.15,2013-03-26 17:04:00,
2013-03-26 12:09:00,37.0,27.8,30.20,NW,317,4.0,7.0,69,0.00,,,0.00,Wunderground v.1.15,2013-03-26 17:09:00,
2013-03-26 12:14:00,37.4,28.2,30.20,West,268,4.0,7.0,69,0.00,,,0.00,Wunderground v.1.15,2013-03-26 17:14:00,
2013-03-26 12:19:00,36.7,27.5,30.20,West,263,7.0,8.0,69,0.00,,,0.00,Wunderground v.1.15,2013-03-26 17:19:00,
2013-03-26 12:24:00,37.2,28.3,30.19,SSW,205,4.0,12.0,70,0.00,,,0.00,Wunderground v.1.15,2013-03-26 17:24:00,
2013-03-26 12:29:00,37.4,27.8,30.19,West,274,8.0,10.0,68,0.00,,,0.00,Wunderground v.1.15,2013-03-26 17:29:00,
2013-03-26 12:34:00,37.1,27.9,30.20,WNW,286,4.0,10.0,69,0.00,,,0.00,Wunderground v.1.15,2013-03-26 17:34:00,
2013-03-26 12:39:00,37.4,28.2,30.19,West,266,3.0,6.0,69,0.00,,,0.00,Wunderground v.1.15,2013-03-26 17:39:00,
2013-03-26 12:44:00,37.5,27.9,30.19,WNW,284,3.0,12.0,68,0.00,,,0.00,Wunderground v.1.15,2013-03-26 17:44:00,
2013-03-26 12:49:00,37.5,28.2,30.19,WSW,255,8.0,10.0,69,0.00,,,0.00,Wunderground v.1.15,2013-03-26 17:49:00,
2013-03-26 12:54:00,37.3,28.4,30.19,NW,305,3.0,11.0,70,0.00,,,0.00,Wunderground v.1.15,2013-03-26 17:54:00,
2013-03-26 12:59:00,37.2,28.3,30.19,WSW,253,4.0,11.0,70,0.00,,,0.00,Wunderground v.1.15,2013-03-26 17:59:00,
2013-03-26 13:04:00,37.2,28.3,30.19,West,269,6.0,11.0,70,0.00,,,0.00,Wunderground v.1.15,2013-03-26 18:04:00,
2013-03-26 13:09:00,37.5,28.2,30.19,West,262,9.0,9.0,69,0.00,,,0.00,Wunderground v.1.15,2013-03-26 18:09:00,
2013-03-26 13:14:00,37.5,28.2,30.19,NW,311,4.0,11.0,69,0.00,,,0.00,Wunderground v.1.15,2013-03-26 18:14:00,
2013-03-26 13:19:00,37.6,29.0,30.19,NW,321,2.0,9.0,71,0.00,,,0.00,Wunderground v.1.15,2013-03-26 18:19:00,
2013-03-26 13:24:00,38.0,28.7,30.19,West,259,11.0,14.0,69,0.00,,,0.00,Wunderground v.1.15,2013-03-26 18:24:00,
2013-03-26 13:29:00,37.7,28.8,30.19,West,266,9.0,9.0,70,0.00,,,0.00,Wunderground v.1.15,2013-03-26 18:29:00,
2013-03-26 13:34:00,38.0,29.1,30.19,West,263,5.0,10.0,70,0.00,,,0.00,Wunderground v.1.15,2013-03-26 18:34:00,
2013-03-26 13:39:00,38.0,29.1,30.19,West,277,5.0,9.0,70,0.00,,,0.00,Wunderground v.1.15,2013-03-26 18:39:00,
2013-03-26 13:44:00,38.3,29.0,30.19,West,273,5.0,10.0,69,0.00,,,0.00,Wunderground v.1.15,2013-03-26 18:44:00,
2013-03-26 13:49:00,38.4,29.1,30.19,NNW,340,4.0,8.0,69,0.00,,,0.00,Wunderground v.1.15,2013-03-26 18:49:00,
2013-03-26 13:54:00,38.7,29.4,30.19,WNW,283,7.0,12.0,69,0.00,,,0.00,Wunderground v.1.15,2013-03-26 18:54:00,
2013-03-26 13:59:00,38.7,29.0,30.19,WNW,282,4.0,10.0,68,0.00,,,0.00,Wunderground v.1.15,2013-03-26 18:59:00,
2013-03-26 14:04:00,38.7,29.8,30.19,WNW,300,4.0,14.0,70,0.00,,,0.00,Wunderground v.1.15,2013-03-26 19:04:00,
2013-03-26 14:09:00,38.9,29.6,30.19,WSW,250,6.0,8.0,69,0.00,,,0.00,Wunderground v.1.15,2013-03-26 19:09:00,
2013-03-26 14:14:00,38.8,29.1,30.19,SW,232,4.0,11.0,68,0.00,,,0.00,Wunderground v.1.15,2013-03-26 19:14:00,
2013-03-26 14:19:00,38.6,29.3,30.19,North,358,2.0,8.0,69,0.00,,,0.00,Wunderground v.1.15,2013-03-26 19:19:00,
2013-03-26 14:24:00,38.9,29.6,30.19,North,1,10.0,11.0,69,0.00,,,0.00,Wunderground v.1.15,2013-03-26 19:24:00,
2013-03-26 14:29:00,39.1,29.8,30.19,WNW,297,5.0,12.0,69,0.00,,,0.00,Wunderground v.1.15,2013-03-26 19:29:00,
2013-03-26 14:34:00,39.1,29.4,30.19,WSW,255,6.0,14.0,68,0.00,,,0.00,Wunderground v.1.15,2013-03-26 19:34:00,
2013-03-26 14:39:00,38.9,29.2,30.19,West,267,7.0,10.0,68,0.00,,,0.00,Wunderground v.1.15,2013-03-26 19:39:00,
2013-03-26 14:44:00,39.1,29.8,30.19,WNW,290,6.0,10.0,69,0.00,,,0.00,Wunderground v.1.15,2013-03-26 19:44:00,
2013-03-26 14:49:00,38.9,29.2,30.19,WSW,255,10.0,11.0,68,0.00,,,0.00,Wunderground v.1.15,2013-03-26 19:49:00,
2013-03-26 14:54:00,39.0,29.7,30.19,West,271,4.0,11.0,69,0.00,,,0.00,Wunderground v.1.15,2013-03-26 19:54:00,
2013-03-26 14:59:00,38.9,29.2,30.19,WNW,284,6.0,9.0,68,0.00,,,0.00,Wunderground v.1.15,2013-03-26 19:59:00,
2013-03-26 15:04:00,39.1,29.4,30.19,West,276,5.0,11.0,68,0.00,,,0.00,Wunderground v.1.15,2013-03-26 20:04:00,
2013-03-26 15:09:00,39.1,29.4,30.19,West,259,3.0,8.0,68,0.00,,,0.00,Wunderground v.1.15,2013-03-26 20:09:00,
2013-03-26 15:14:00,39.2,29.2,30.19,West,269,8.0,10.0,67,0.00,,,0.00,Wunderground v.1.15,2013-03-26 20:14:00,
2013-03-26 15:19:00,39.4,29.3,30.19,West,259,8.0,11.0,67,0.00,,,0.00,Wunderground v.1.15,2013-03-26 20:19:00,
2013-03-26 15:24:00,39.7,29.3,30.19,West,277,3.0,12.0,66,0.00,,,0.00,Wunderground v.1.15,2013-03-26 20:24:00,
2013-03-26 15:29:00,39.6,29.2,30.19,West,263,6.0,8.0,66,0.00,,,0.00,Wunderground v.1.15,2013-03-26 20:29:00,
2013-03-26 15:34:00,39.7,29.6,30.19,West,278,6.0,9.0,67,0.00,,,0.00,Wunderground v.1.15,2013-03-26 20:34:00,
2013-03-26 15:39:00,39.7,29.3,30.19,WNW,300,6.0,9.0,66,0.00,,,0.00,Wunderground v.1.15,2013-03-26 20:39:00,
2013-03-26 15:44:00,39.9,29.1,30.19,West,278,1.0,9.0,65,0.00,,,0.00,Wunderground v.1.15,2013-03-26 20:44:00,
2013-03-26 15:49:00,40.1,29.3,30.19,WNW,300,3.0,10.0,65,0.00,,,0.00,Wunderground v.1.15,2013-03-26 20:49:00,
2013-03-26 15:54:00,39.7,28.9,30.19,NW,309,11.0,13.0,65,0.00,,,0.00,Wunderground v.1.15,2013-03-26 20:54:00,
2013-03-26 15:59:00,39.5,29.1,30.19,NW,326,1.0,10.0,66,0.00,,,0.00,Wunderground v.1.15,2013-03-26 20:59:00,
2013-03-26 16:04:00,39.4,28.6,30.19,WSW,239,9.0,10.0,65,0.00,,,0.00,Wunderground v.1.15,2013-03-26 21:04:00,
2013-03-26 16:09:00,38.9,28.5,30.19,West,277,4.0,9.0,66,0.00,,,0.00,Wunderground v.1.15,2013-03-26 21:09:00,
2013-03-26 16:14:00,38.7,28.7,30.19,NW,319,3.0,9.0,67,0.00,,,0.00,Wunderground v.1.15,2013-03-26 21:14:00,
2013-03-26 16:19:00,38.7,28.7,30.19,NNW,338,2.0,4.0,67,0.00,,,0.00,Wunderground v.1.15,2013-03-26 21:19:00,
2013-03-26 16:24:00,39.1,29.1,30.20,NNW,335,6.0,8.0,67,0.00,,,0.00,Wunderground v.1.15,2013-03-26 21:24:00,
2013-03-26 16:29:00,39.3,28.5,30.20,West,277,4.0,7.0,65,0.00,,,0.00,Wunderground v.1.15,2013-03-26 21:29:00,
2013-03-26 16:34:00,39.0,28.2,30.19,WSW,246,9.0,10.0,65,0.00,,,0.00,Wunderground v.1.15,2013-03-26 21:34:00,
2013-03-26 16:39:00,38.7,28.3,30.20,WSW,253,1.0,9.0,66,0.00,,,0.00,Wunderground v.1.15,2013-03-26 21:39:00,
2013-03-26 16:44:00,38.8,28.4,30.20,WSW,250,5.0,9.0,66,0.00,,,0.00,Wunderground v.1.15,2013-03-26 21:44:00,
2013-03-26 16:49:00,38.5,28.5,30.20,West,271,3.0,5.0,67,0.00,,,0.00,Wunderground v.1.15,2013-03-26 21:49:00,
2013-03-26 16:54:00,38.5,28.5,30.20,West,264,4.0,6.0,67,0.00,,,0.00,Wunderground v.1.15,2013-03-26 21:54:00,
2013-03-26 16:59:00,38.5,28.5,30.20,West,281,4.0,5.0,67,0.00,,,0.00,Wunderground v.1.15,2013-03-26 21:59:00,
2013-03-26 17:04:00,38.4,28.0,30.20,WSW,255,6.0,8.0,66,0.00,,,0.00,Wunderground v.1.15,2013-03-26 22:04:00,
2013-03-26 17:09:00,38.2,27.8,30.20,WSW,252,0.0,6.0,66,0.00,,,0.00,Wunderground v.1.15,2013-03-26 22:09:00,
2013-03-26 17:14:00,38.4,28.4,30.20,West,274,0.0,6.0,67,0.00,,,0.00,Wunderground v.1.15,2013-03-26 22:14:00,
2013-03-26 17:19:00,38.5,27.7,30.20,NNW,339,4.0,5.0,65,0.00,,,0.00,Wunderground v.1.15,2013-03-26 22:19:00,
2013-03-26 17:24:00,38.5,28.1,30.20,NNW,335,0.0,10.0,66,0.00,,,0.00,Wunderground v.1.15,2013-03-26 22:24:00,
2013-03-26 17:29:00,38.7,28.3,30.20,WSW,252,0.0,5.0,66,0.00,,,0.00,Wunderground v.1.15,2013-03-26 22:29:00,
2013-03-26 17:34:00,38.9,28.5,30.20,WSW,248,2.0,5.0,66,0.00,,,0.00,Wunderground v.1.15,2013-03-26 22:34:00,
2013-03-26 17:39:00,38.7,28.3,30.20,West,263,2.0,5.0,66,0.00,,,0.00,Wunderground v.1.15,2013-03-26 22:39:00,
2013-03-26 17:44:00,38.8,28.4,30.20,NW,313,0.0,5.0,66,0.00,,,0.00,Wunderground v.1.15,2013-03-26 22:44:00,
2013-03-26 17:49:00,38.7,27.9,30.20,West,276,3.0,6.0,65,0.00,,,0.00,Wunderground v.1.15,2013-03-26 22:49:00,
2013-03-26 17:54:00,38.4,27.7,30.21,West,276,3.0,8.0,65,0.00,,,0.00,Wunderground v.1.15,2013-03-26 22:54:00,
2013-03-26 18:00:00,38.2,27.8,30.21,NNW,331,3.0,5.0,66,0.00,,,0.00,Wunderground v.1.15,2013-03-26 23:00:00,
2013-03-26 18:05:00,38.1,27.7,30.21,West,276,2.0,5.0,66,0.00,,,0.00,Wunderground v.1.15,2013-03-26 23:05:00,
2013-03-26 18:10:00,38.0,27.6,30.21,WNW,298,1.0,3.0,66,0.00,,,0.00,Wunderground v.1.15,2013-03-26 23:10:00,
2013-03-26 18:15:00,37.9,27.9,30.21,NNW,331,2.0,4.0,67,0.00,,,0.00,Wunderground v.1.15,2013-03-26 23:15:00,
2013-03-26 18:20:00,37.8,27.5,30.21,West,280,1.0,5.0,66,0.00,,,0.00,Wunderground v.1.15,2013-03-26 23:20:00,
2013-03-26 18:25:00,37.8,27.8,30.21,WNW,282,1.0,5.0,67,0.00,,,0.00,Wunderground v.1.15,2013-03-26 23:25:00,
2013-03-26 18:30:00,37.7,27.7,30.21,West,274,2.0,3.0,67,0.00,,,0.00,Wunderground v.1.15,2013-03-26 23:30:00,
2013-03-26 18:35:00,37.6,27.6,30.21,NW,309,1.0,5.0,67,0.00,,,0.00,Wunderground v.1.15,2013-03-26 23:35:00,
2013-03-26 18:40:00,37.5,27.9,30.22,WNW,294,4.0,4.0,68,0.00,,,0.00,Wunderground v.1.15,2013-03-26 23:40:00,
2013-03-26 18:45:00,37.4,27.8,30.22,West,280,2.0,6.0,68,0.00,,,0.00,Wunderground v.1.15,2013-03-26 23:45:00,
2013-03-26 18:50:00,37.2,27.6,30.22,WNW,295,3.0,4.0,68,0.00,,,0.00,Wunderground v.1.15,2013-03-26 23:50:00,
2013-03-26 18:55:00,37.2,27.6,30.22,NW,309,1.0,5.0,68,0.00,,,0.00,Wunderground v.1.15,2013-03-26 23:55:00,
2013-03-26 19:00:00,37.4,27.8,30.22,West,281,1.0,3.0,68,0.00,,,0.00,Wunderground v.1.15,2013-03-27 00:00:00,
2013-03-26 19:05:00,37.2,28.0,30.22,West,281,0.0,3.0,69,0.00,,,0.00,Wunderground v.1.15,2013-03-27 00:05:00,
2013-03-26 19:10:00,36.9,27.7,30.22,WNW,285,1.0,2.0,69,0.00,,,0.00,Wunderground v.1.15,2013-03-27 00:10:00,
2013-03-26 19:15:00,36.7,27.8,30.22,West,266,1.0,2.0,70,0.00,,,0.00,Wunderground v.1.15,2013-03-27 00:15:00,
2013-03-26 19:20:00,36.5,28.0,30.22,West,270,1.0,2.0,71,0.00,,,0.00,Wunderground v.1.15,2013-03-27 00:20:00,
2013-03-26 19:25:00,36.3,27.8,30.22,WNW,285,0.0,2.0,71,0.00,,,0.00,Wunderground v.1.15,2013-03-27 00:25:00,
2013-03-26 19:30:00,36.2,27.7,30.22,WNW,285,0.0,2.0,71,0.00,,,0.00,Wunderground v.1.15,2013-03-27 00:30:00,
2013-03-26 19:35:00,36.1,27.6,30.22,West,274,0.0,2.0,71,0.00,,,0.00,Wunderground v.1.15,2013-03-27 00:35:00,
2013-03-26 19:40:00,36.0,27.8,30.22,West,268,0.0,0.0,72,0.00,,,0.00,Wunderground v.1.15,2013-03-27 00:40:00,
2013-03-26 19:45:00,35.9,27.7,30.22,West,281,1.0,2.0,72,0.00,,,0.00,Wunderground v.1.15,2013-03-27 00:45:00,
2013-03-26 19:50:00,35.8,27.7,30.22,WSW,249,1.0,3.0,72,0.00,,,0.00,Wunderground v.1.15,2013-03-27 00:50:00,
2013-03-26 19:55:00,35.8,27.7,30.22,West,276,1.0,4.0,72,0.00,,,0.00,Wunderground v.1.15,2013-03-27 00:55:00,
2013-03-26 20:00:00,35.7,27.6,30.22,West,266,0.0,2.0,72,0.00,,,0.00,Wunderground v.1.15,2013-03-27 01:00:00,
2013-03-26 20:05:00,35.7,27.6,30.23,WSW,255,0.0,2.0,72,0.00,,,0.00,Wunderground v.1.15,2013-03-27 01:05:00,
2013-03-26 20:10:00,35.7,27.2,30.23,WNW,282,0.0,0.0,71,0.00,,,0.00,Wunderground v.1.15,2013-03-27 01:10:00,
2013-03-26 20:15:00,35.7,27.2,30.23,West,266,0.0,0.0,71,0.00,,,0.00,Wunderground v.1.15,2013-03-27 01:15:00,
2013-03-26 20:20:00,35.6,27.1,30.23,West,260,0.0,0.0,71,0.00,,,0.00,Wunderground v.1.15,2013-03-27 01:20:00,
2013-03-26 20:25:00,35.5,27.0,30.23,West,268,0.0,0.0,71,0.00,,,0.00,Wunderground v.1.15,2013-03-27 01:25:00,
2013-03-26 20:30:00,35.5,27.4,30.23,West,270,0.0,0.0,72,0.00,,,0.00,Wunderground v.1.15,2013-03-27 01:30:00,
2013-03-26 20:35:00,35.2,27.4,30.23,West,260,0.0,0.0,73,0.00,,,0.00,Wunderground v.1.15,2013-03-27 01:35:00,
2013-03-26 20:40:00,35.1,27.3,30.23,West,262,0.0,0.0,73,0.00,,,0.00,Wunderground v.1.15,2013-03-27 01:40:00,
2013-03-26 20:45:00,35.1,27.0,30.23,West,259,0.0,0.0,72,0.00,,,0.00,Wunderground v.1.15,2013-03-27 01:45:00,
2013-03-26 20:50:00,35.1,27.0,30.23,WSW,252,0.0,0.0,72,0.00,,,0.00,Wunderground v.1.15,2013-03-27 01:50:00,
2013-03-26 20:55:00,35.2,26.7,30.23,West,280,0.0,0.0,71,0.00,,,0.00,Wunderground v.1.15,2013-03-27 01:55:00,
2013-03-26 21:00:00,35.3,26.8,30.24,WNW,290,0.0,0.0,71,0.00,,,0.00,Wunderground v.1.15,2013-03-27 02:00:00,
2013-03-26 21:05:00,35.3,26.8,30.24,West,267,0.0,0.0,71,0.00,,,0.00,Wunderground v.1.15,2013-03-27 02:05:00,
2013-03-26 21:10:00,35.3,26.8,30.24,WNW,290,0.0,0.0,71,0.00,,,0.00,Wunderground v.1.15,2013-03-27 02:10:00,
2013-03-26 21:15:00,35.2,26.7,30.24,West,272,0.0,0.0,71,0.00,,,0.00,Wunderground v.1.15,2013-03-27 02:15:00,
2013-03-26 21:20:00,35.1,27.0,30.24,West,263,0.0,0.0,72,0.00,,,0.00,Wunderground v.1.15,2013-03-27 02:20:00,
2013-03-26 21:25:00,34.8,27.0,30.24,West,263,0.0,0.0,73,0.00,,,0.00,Wunderground v.1.15,2013-03-27 02:25:00,
2013-03-26 21:30:00,34.6,26.8,30.24,West,263,0.0,0.0,73,0.00,,,0.00,Wunderground v.1.15,2013-03-27 02:30:00,
2013-03-26 21:35:00,34.5,27.1,30.24,West,263,0.0,0.0,74,0.00,,,0.00,Wunderground v.1.15,2013-03-27 02:35:00,
2013-03-26 21:40:00,34.4,27.0,30.24,West,263,0.0,0.0,74,0.00,,,0.00,Wunderground v.1.15,2013-03-27 02:40:00,
2013-03-26 21:45:00,34.3,26.9,30.24,West,266,0.0,0.0,74,0.00,,,0.00,Wunderground v.1.15,2013-03-27 02:45:00,
2013-03-26 21:50:00,34.4,27.0,30.24,West,277,0.0,0.0,74,0.00,,,0.00,Wunderground v.1.15,2013-03-27 02:50:00,
2013-03-26 21:55:00,34.4,27.0,30.24,West,276,0.0,0.0,74,0.00,,,0.00,Wunderground v.1.15,2013-03-27 02:55:00,
2013-03-26 22:00:00,34.5,26.7,30.24,WNW,290,0.0,0.0,73,0.00,,,0.00,Wunderground v.1.15,2013-03-27 03:00:00,
2013-03-26 22:05:00,34.6,26.5,30.24,WSW,249,0.0,0.0,72,0.00,,,0.00,Wunderground v.1.15,2013-03-27 03:05:00,
2013-03-26 22:10:00,34.6,26.5,30.24,WSW,255,0.0,0.0,72,0.00,,,0.00,Wunderground v.1.15,2013-03-27 03:10:00,
2013-03-26 22:15:00,34.5,26.4,30.24,WSW,255,0.0,0.0,72,0.00,,,0.00,Wunderground v.1.15,2013-03-27 03:15:00,
2013-03-26 22:20:00,34.5,26.4,30.24,West,269,0.0,0.0,72,0.00,,,0.00,Wunderground v.1.15,2013-03-27 03:20:00,
2013-03-26 22:25:00,34.4,26.6,30.24,West,262,0.0,0.0,73,0.00,,,0.00,Wunderground v.1.15,2013-03-27 03:25:00,
2013-03-26 22:30:00,34.3,26.5,30.24,West,264,2.0,3.0,73,0.00,,,0.00,Wunderground v.1.15,2013-03-27 03:30:00,
2013-03-26 22:35:00,34.3,26.5,30.24,WNW,302,1.0,3.0,73,0.00,,,0.00,Wunderground v.1.15,2013-03-27 03:35:00,
2013-03-26 22:40:00,34.4,26.3,30.24,NNW,329,1.0,2.0,72,0.00,,,0.00,Wunderground v.1.15,2013-03-27 03:40:00,
2013-03-26 22:45:00,34.5,26.1,30.24,West,263,0.0,2.0,71,0.00,,,0.00,Wunderground v.1.15,2013-03-27 03:45:00,
2013-03-26 22:50:00,34.4,26.3,30.24,West,269,1.0,3.0,72,0.00,,,0.00,Wunderground v.1.15,2013-03-27 03:50:00,
2013-03-26 22:55:00,34.4,26.3,30.24,WSW,255,1.0,3.0,72,0.00,,,0.00,Wunderground v.1.15,2013-03-27 03:55:00,
2013-03-26 23:00:00,34.4,26.3,30.24,West,263,1.0,3.0,72,0.00,,,0.00,Wunderground v.1.15,2013-03-27 04:00:00,
2013-03-26 23:05:00,34.3,26.2,30.24,WSW,255,2.0,3.0,72,0.00,,,0.00,Wunderground v.1.15,2013-03-27 04:05:00,
2013-03-26 23:10:00,34.3,25.9,30.24,West,262,2.0,3.0,71,0.00,,,0.00,Wunderground v.1.15,2013-03-27 04:10:00,
2013-03-26 23:15:00,34.4,26.0,30.24,WSW,257,3.0,4.0,71,0.00,,,0.00,Wunderground v.1.15,2013-03-27 04:15:00,
2013-03-26 23:20:00,34.4,26.0,30.24,NW,325,1.0,2.0,71,0.00,,,0.00,Wunderground v.1.15,2013-03-27 04:20:00,
2013-03-26 23:25:00,34.3,25.9,30.24,West,259,2.0,3.0,71,0.00,,,0.00,Wunderground v.1.15,2013-03-27 04:25:00,
2013-03-26 23:30:00,34.3,25.9,30.24,WNW,282,1.0,2.0,71,0.00,,,0.00,Wunderground v.1.15,2013-03-27 04:30:00,
2013-03-26 23:35:00,34.2,25.8,30.24,NW,309,1.0,3.0,71,0.00,,,0.00,Wunderground v.1.15,2013-03-27 04:35:00,
2013-03-26 23:40:00,34.2,25.8,30.24,WNW,302,0.0,2.0,71,0.00,,,0.00,Wunderground v.1.15,2013-03-27 04:40:00,
2013-03-26 23:45:00,34.2,25.8,30.24,WNW,285,1.0,4.0,71,0.00,,,0.00,Wunderground v.1.15,2013-03-27 04:45:00,
2013-03-26 23:50:00,34.1,25.7,30.24,West,272,1.0,3.0,71,0.00,,,0.00,Wunderground v.1.15,2013-03-27 04:50:00,
2013-03-26 23:55:00,34.1,25.7,30.24,WNW,297,1.0,3.0,71,0.00,,,0.00,Wunderground v.1.15,2013-03-27 04:55:00,